createdAt,value
2022-12-15T00:00:06.013Z,-1.3
2022-12-15T00:01:06.277Z,-1.2
2022-12-15T00:02:05.623Z,-1.2
2022-12-15T00:03:06.511Z,-1.2
2022-12-15T00:04:05.871Z,-1.3
2022-12-15T00:05:06.208Z,-1.3
2022-12-15T00:06:05.607Z,-1.3
2022-12-15T00:07:06.359Z,-1.3
2022-12-15T00:08:05.466Z,-1.3
2022-12-15T00:09:07.507Z,-1.3
2022-12-15T00:10:06.338Z,-1.3
2022-12-15T00:11:06.151Z,-1.3
2022-12-15T00:12:05.604Z,-1.3
2022-12-15T00:13:05.614Z,-1.3
2022-12-15T00:14:06.571Z,-2
2022-12-15T00:15:05.775Z,-1.3
2022-12-15T00:16:05.827Z,-1.3
2022-12-15T00:17:06.215Z,-1.3
2022-12-15T00:18:06.301Z,-1.3
2022-12-15T00:19:05.609Z,-1.3
2022-12-15T00:20:05.875Z,-1.3
2022-12-15T00:21:06.157Z,-1.3
2022-12-15T00:22:05.815Z,-1.3
2022-12-15T00:23:06.284Z,-1.3
2022-12-15T00:24:05.665Z,-1.3
2022-12-15T00:25:06.073Z,-1.3
2022-12-15T00:26:05.545Z,-1.3
2022-12-15T00:27:05.513Z,-1.3
2022-12-15T00:28:06.083Z,-1.3
2022-12-15T00:29:04.918Z,-1.3
2022-12-15T00:30:06.556Z,-1.4
2022-12-15T00:31:07.280Z,-1.4
2022-12-15T00:32:05.876Z,-1.4
2022-12-15T00:33:05.914Z,-1.4
2022-12-15T00:34:06.176Z,-1.4
2022-12-15T00:35:05.047Z,-1.4
2022-12-15T00:36:05.528Z,-1.4
2022-12-15T00:37:05.533Z,-1.4
2022-12-15T00:38:05.596Z,-1.4
2022-12-15T00:39:08.224Z,-1.4
2022-12-15T00:40:06.484Z,-2
2022-12-15T00:41:05.986Z,-1.4
2022-12-15T00:42:06.437Z,-1.4
2022-12-15T00:43:06.176Z,-2
2022-12-15T00:44:05.670Z,-2
2022-12-15T00:45:05.607Z,-1.5
2022-12-15T00:46:06.071Z,-1.4
2022-12-15T00:47:06.823Z,-1.4
2022-12-15T00:48:05.871Z,-1.4
2022-12-15T00:49:06.338Z,-2
2022-12-15T00:50:05.752Z,-1.4
2022-12-15T00:51:06.218Z,-1.4
2022-12-15T00:52:05.547Z,-1.4
2022-12-15T00:53:06.211Z,-1.4
2022-12-15T00:54:06.211Z,-1.4
2022-12-15T00:55:06.235Z,-1.5
2022-12-15T00:56:05.526Z,-1.5
2022-12-15T00:57:06.244Z,-1.4
2022-12-15T00:58:05.728Z,-1.5
2022-12-15T00:59:05.532Z,-1.5
2022-12-15T01:00:05.781Z,-1.5
2022-12-15T01:01:04.869Z,-1.5
2022-12-15T01:02:06.122Z,-1.5
2022-12-15T01:03:06.971Z,-1.5
2022-12-15T01:04:06.047Z,-1.5
2022-12-15T01:05:05.825Z,-1.5
2022-12-15T01:06:05.973Z,-1.5
2022-12-15T01:07:06.474Z,-1.6
2022-12-15T01:08:05.951Z,-1.6
2022-12-15T01:09:05.488Z,-1.6
2022-12-15T01:10:05.655Z,-1.6
2022-12-15T01:11:05.863Z,-1.6
2022-12-15T01:12:05.625Z,-1.6
2022-12-15T01:13:06.064Z,-1.6
2022-12-15T01:14:05.757Z,-1.6
2022-12-15T01:15:06.358Z,-1.6
2022-12-15T01:16:06.079Z,-1.6
2022-12-15T01:17:05.787Z,-1.6
2022-12-15T01:18:06.333Z,-1.6
2022-12-15T01:19:05.860Z,-1.6
2022-12-15T01:20:06.170Z,-1.6
2022-12-15T01:21:06.474Z,-1.6
2022-12-15T01:22:05.876Z,-1.6
2022-12-15T01:23:06.323Z,-1.6
2022-12-15T01:24:06.419Z,-1.6
2022-12-15T01:25:06.097Z,-1.6
2022-12-15T01:26:06.330Z,-1.6
2022-12-15T01:27:05.879Z,-1.6
2022-12-15T01:28:05.939Z,-1.6
2022-12-15T01:29:06.451Z,-1.6
2022-12-15T01:30:06.712Z,-1.7
2022-12-15T01:31:05.997Z,-1.6
2022-12-15T01:32:05.761Z,-1.6
2022-12-15T01:33:05.801Z,-1.7
2022-12-15T01:34:05.955Z,-1.7
2022-12-15T01:35:06.380Z,-1.7
2022-12-15T01:36:06.126Z,-1.7
2022-12-15T01:37:06.000Z,-1.7
2022-12-15T01:38:06.445Z,-1.7
2022-12-15T01:39:05.813Z,-1.7
2022-12-15T01:40:06.232Z,-1.7
2022-12-15T01:41:05.727Z,-1.7
2022-12-15T01:42:05.650Z,-1.7
2022-12-15T01:43:06.212Z,-1.8
2022-12-15T01:44:06.118Z,-1.7
2022-12-15T01:45:05.841Z,-3
2022-12-15T01:46:05.861Z,-1.8
2022-12-15T01:47:06.590Z,-1.8
2022-12-15T01:48:05.859Z,-3
2022-12-15T01:49:05.912Z,-1.8
2022-12-15T01:50:06.064Z,-1.8
2022-12-15T01:51:05.520Z,-1.8
2022-12-15T01:52:05.589Z,-1.8
2022-12-15T01:53:05.522Z,-1.8
2022-12-15T01:54:05.860Z,-1.8
2022-12-15T01:55:05.632Z,-3
2022-12-15T01:56:06.528Z,-3
2022-12-15T01:57:06.317Z,-1.9
2022-12-15T01:58:05.733Z,-1.9
2022-12-15T01:59:05.900Z,-1.8
2022-12-15T02:00:05.526Z,-1.8
2022-12-15T02:01:06.287Z,-1.8
2022-12-15T02:02:06.961Z,-1.8
2022-12-15T02:03:06.382Z,-1.8
2022-12-15T02:04:06.072Z,-1.8
2022-12-15T02:05:05.855Z,-1.8
2022-12-15T02:06:05.938Z,-3
2022-12-15T02:07:06.283Z,-1.8
2022-12-15T02:08:06.131Z,-1.8
2022-12-15T02:09:05.738Z,-1.8
2022-12-15T02:10:06.335Z,-1.8
2022-12-15T02:11:04.679Z,-1.8
2022-12-15T02:12:06.206Z,-1.8
2022-12-15T02:13:06.408Z,-1.8
2022-12-15T02:14:05.798Z,-1.8
2022-12-15T02:15:05.723Z,-1.8
2022-12-15T02:16:06.402Z,-1.9
2022-12-15T02:17:05.819Z,-1.9
2022-12-15T02:18:05.824Z,-1.9
2022-12-15T02:19:05.808Z,-1.9
2022-12-15T02:20:06.168Z,-1.9
2022-12-15T02:21:05.684Z,-1.9
2022-12-15T02:22:05.738Z,-1.9
2022-12-15T02:23:05.671Z,-1.9
2022-12-15T02:24:05.491Z,-1.9
2022-12-15T02:25:06.421Z,-1.9
2022-12-15T02:26:05.814Z,-1.9
2022-12-15T02:27:06.346Z,-1.9
2022-12-15T02:28:05.985Z,-1.9
2022-12-15T02:29:05.928Z,-3
2022-12-15T02:30:06.486Z,-1.9
2022-12-15T02:31:05.587Z,-1.9
2022-12-15T02:32:06.039Z,-1.9
2022-12-15T02:33:06.425Z,-1.9
2022-12-15T02:34:05.229Z,-3
2022-12-15T02:35:05.570Z,-1.9
2022-12-15T02:36:06.009Z,-1.9
2022-12-15T02:37:05.940Z,-1.9
2022-12-15T02:38:06.419Z,-1.9
2022-12-15T02:39:06.098Z,-1.9
2022-12-15T02:40:06.213Z,-1.9
2022-12-15T02:41:05.581Z,-1.9
2022-12-15T02:42:05.743Z,-1.9
2022-12-15T02:43:06.293Z,-1.9
2022-12-15T02:44:06.016Z,-2
2022-12-15T02:45:05.922Z,-2
2022-12-15T02:46:05.770Z,-1.9
2022-12-15T02:47:05.848Z,-2
2022-12-15T02:48:06.350Z,-2
2022-12-15T02:49:05.799Z,-2
2022-12-15T02:50:05.741Z,-2
2022-12-15T02:51:06.177Z,-2
2022-12-15T02:52:05.674Z,-2
2022-12-15T02:53:05.990Z,-3
2022-12-15T02:54:05.788Z,-3
2022-12-15T02:55:06.475Z,-2
2022-12-15T02:56:06.325Z,-2
2022-12-15T02:57:06.337Z,-2
2022-12-15T02:58:05.489Z,-2
2022-12-15T02:59:06.100Z,-2
2022-12-15T03:00:05.586Z,-2
2022-12-15T03:01:06.035Z,-2
2022-12-15T03:02:06.705Z,-2.1
2022-12-15T03:03:05.994Z,-2.1
2022-12-15T03:04:05.710Z,-3
2022-12-15T03:05:06.330Z,-2.1
2022-12-15T03:06:05.280Z,-2.1
2022-12-15T03:07:05.838Z,-2.1
2022-12-15T03:08:06.201Z,-2.1
2022-12-15T03:09:05.826Z,-2.1
2022-12-15T03:10:06.460Z,-2.1
2022-12-15T03:11:05.865Z,-2.1
2022-12-15T03:12:06.373Z,-2.2
2022-12-15T03:13:05.876Z,-2.2
2022-12-15T03:14:06.243Z,-2.2
2022-12-15T03:15:05.783Z,-2.2
2022-12-15T03:16:06.164Z,-2.1
2022-12-15T03:17:06.319Z,-2.2
2022-12-15T03:18:05.753Z,-2.1
2022-12-15T03:19:06.223Z,-2.2
2022-12-15T03:20:05.958Z,-2.1
2022-12-15T03:21:06.570Z,-2.2
2022-12-15T03:22:05.669Z,-2.2
2022-12-15T03:23:06.096Z,-2.2
2022-12-15T03:24:06.527Z,-2.2
2022-12-15T03:25:05.828Z,-2.2
2022-12-15T03:26:06.363Z,-2.2
2022-12-15T03:27:06.201Z,-2.2
2022-12-15T03:28:06.375Z,-2.2
2022-12-15T03:29:06.396Z,-2.2
2022-12-15T03:30:06.394Z,-2.2
2022-12-15T03:31:05.643Z,-2.2
2022-12-15T03:32:06.076Z,-2.2
2022-12-15T03:33:06.019Z,-2.2
2022-12-15T03:34:05.804Z,-2.2
2022-12-15T03:35:06.283Z,-2.2
2022-12-15T03:36:06.482Z,-2.2
2022-12-15T03:37:06.072Z,-2.2
2022-12-15T03:38:06.524Z,-2.2
2022-12-15T03:39:05.982Z,-2.2
2022-12-15T03:40:06.032Z,-2.2
2022-12-15T03:41:06.232Z,-2.2
2022-12-15T03:42:05.881Z,-2.2
2022-12-15T03:43:06.193Z,-2.2
2022-12-15T03:44:06.029Z,-3
2022-12-15T03:45:06.307Z,-2.2
2022-12-15T03:46:06.187Z,-2.2
2022-12-15T03:47:08.057Z,-2.2
2022-12-15T03:48:06.104Z,-3
2022-12-15T03:49:05.407Z,-2.2
2022-12-15T03:50:06.280Z,-2.2
2022-12-15T03:51:05.952Z,-3
2022-12-15T03:52:06.200Z,-2.2
2022-12-15T03:53:05.610Z,-3
2022-12-15T03:54:06.013Z,-2.2
2022-12-15T03:55:05.545Z,-2.2
2022-12-15T03:56:06.401Z,-2.2
2022-12-15T03:57:04.895Z,-2.2
2022-12-15T03:58:06.425Z,-2.2
2022-12-15T03:59:05.684Z,-2.2
2022-12-15T04:00:06.587Z,-2.2
2022-12-15T04:01:06.661Z,-2.3
2022-12-15T04:02:05.371Z,-2.2
2022-12-15T04:03:06.303Z,-3
2022-12-15T04:04:06.650Z,-2.2
2022-12-15T04:05:05.615Z,-2.2
2022-12-15T04:06:06.107Z,-2.2
2022-12-15T04:07:05.458Z,-2.2
2022-12-15T04:08:06.193Z,-2.2
2022-12-15T04:09:05.714Z,-2.2
2022-12-15T04:10:06.410Z,-2.2
2022-12-15T04:11:05.948Z,-2.2
2022-12-15T04:12:06.215Z,-2.2
2022-12-15T04:13:05.622Z,-2.2
2022-12-15T04:14:06.383Z,-2.2
2022-12-15T04:15:05.889Z,-2.2
2022-12-15T04:16:05.539Z,-2.2
2022-12-15T04:17:06.165Z,-2.2
2022-12-15T04:18:06.511Z,-2.2
2022-12-15T04:19:05.908Z,-2.2
2022-12-15T04:20:06.388Z,-2.3
2022-12-15T04:21:06.011Z,-2.3
2022-12-15T04:22:05.797Z,-2.2
2022-12-15T04:23:06.096Z,-2.2
2022-12-15T04:24:05.556Z,-2.3
2022-12-15T04:25:05.777Z,-2.2
2022-12-15T04:26:05.547Z,-2.2
2022-12-15T04:27:06.426Z,-3
2022-12-15T04:28:06.184Z,-2.3
2022-12-15T04:29:06.508Z,-2.3
2022-12-15T04:30:06.526Z,-3
2022-12-15T04:31:06.329Z,-2.3
2022-12-15T04:32:05.499Z,-2.3
2022-12-15T04:33:06.036Z,-2.3
2022-12-15T04:34:06.346Z,-2.3
2022-12-15T04:35:06.199Z,-2.3
2022-12-15T04:36:05.674Z,-2.3
2022-12-15T04:37:04.862Z,-2.3
2022-12-15T04:38:06.131Z,-2.2
2022-12-15T04:39:05.617Z,-2.3
2022-12-15T04:40:06.072Z,-2.2
2022-12-15T04:41:06.107Z,-2.2
2022-12-15T04:42:05.585Z,-2.3
2022-12-15T04:43:05.674Z,-2.3
2022-12-15T04:44:06.365Z,-2.3
2022-12-15T04:45:05.840Z,-2.3
2022-12-15T04:46:06.607Z,-2.3
2022-12-15T04:47:06.418Z,-2.3
2022-12-15T04:48:05.869Z,-2.3
2022-12-15T04:49:06.286Z,-2.3
2022-12-15T04:50:05.805Z,-2.3
2022-12-15T04:51:06.203Z,-2.3
2022-12-15T04:52:05.723Z,-2.3
2022-12-15T04:53:05.780Z,-2.3
2022-12-15T04:54:06.411Z,-2.3
2022-12-15T04:55:04.802Z,-2.3
2022-12-15T04:56:06.418Z,-2.3
2022-12-15T04:57:05.877Z,-3
2022-12-15T04:58:06.003Z,-3
2022-12-15T04:59:05.432Z,-2.3
2022-12-15T05:00:05.936Z,-2.4
2022-12-15T05:01:05.794Z,-2.4
2022-12-15T05:02:06.982Z,-2.4
2022-12-15T05:03:06.239Z,-2.4
2022-12-15T05:04:05.880Z,-3
2022-12-15T05:05:05.417Z,-2.4
2022-12-15T05:06:05.825Z,-2.4
2022-12-15T05:07:05.408Z,-2.4
2022-12-15T05:08:05.527Z,-2.4
2022-12-15T05:09:04.959Z,-2.4
2022-12-15T05:10:15.029Z,-2.4
2022-12-15T05:11:05.617Z,-2.4
2022-12-15T05:12:05.849Z,-2.4
2022-12-15T05:13:05.929Z,-2.4
2022-12-15T05:14:06.449Z,-2.4
2022-12-15T05:15:05.980Z,-2.4
2022-12-15T05:16:05.703Z,-2.4
2022-12-15T05:17:06.208Z,-2.4
2022-12-15T05:18:05.994Z,-2.4
2022-12-15T05:19:06.366Z,-2.4
2022-12-15T05:20:05.741Z,-2.4
2022-12-15T05:21:06.291Z,-2.4
2022-12-15T05:22:05.814Z,-2.4
2022-12-15T05:23:06.287Z,-2.4
2022-12-15T05:24:05.804Z,-2.4
2022-12-15T05:25:06.180Z,-3
2022-12-15T05:26:05.845Z,-2.4
2022-12-15T05:27:06.298Z,-2.4
2022-12-15T05:28:05.709Z,-2.4
2022-12-15T05:29:06.398Z,-2.4
2022-12-15T05:30:05.781Z,-3
2022-12-15T05:31:06.246Z,-2.4
2022-12-15T05:32:05.704Z,-2.4
2022-12-15T05:33:05.790Z,-2.4
2022-12-15T05:34:09.875Z,-2.4
2022-12-15T05:35:05.758Z,-2.4
2022-12-15T05:36:06.306Z,-2.4
2022-12-15T05:37:05.968Z,-2.4
2022-12-15T05:38:06.138Z,-3
2022-12-15T05:39:05.520Z,-3
2022-12-15T05:40:06.395Z,-2.4
2022-12-15T05:41:05.814Z,-2.4
2022-12-15T05:42:05.620Z,-2.4
2022-12-15T05:43:06.124Z,-2.4
2022-12-15T05:44:05.608Z,-3
2022-12-15T05:45:06.215Z,-2.4
2022-12-15T05:46:05.253Z,-2.4
2022-12-15T05:47:05.700Z,-2.4
2022-12-15T05:48:06.362Z,-3
2022-12-15T05:49:06.221Z,-3
2022-12-15T05:50:05.593Z,-2.4
2022-12-15T05:51:05.565Z,-2.4
2022-12-15T05:52:06.168Z,-2.4
2022-12-15T05:53:05.088Z,-2.4
2022-12-15T05:54:06.341Z,-2.4
2022-12-15T05:55:06.265Z,-2.4
2022-12-15T05:56:06.295Z,-3
2022-12-15T05:57:05.761Z,-3
2022-12-15T05:58:05.845Z,-2.4
2022-12-15T05:59:06.376Z,-2.4
2022-12-15T06:00:05.935Z,-2.4
2022-12-15T06:01:06.305Z,-3
2022-12-15T06:02:06.119Z,-3
2022-12-15T06:03:06.572Z,-3
2022-12-15T06:04:05.869Z,-2.5
2022-12-15T06:05:05.931Z,-2.5
2022-12-15T06:06:06.232Z,-2.4
2022-12-15T06:07:05.842Z,-2.4
2022-12-15T06:08:06.255Z,-2.4
2022-12-15T06:09:05.928Z,-2.4
2022-12-15T06:10:05.791Z,-2.5
2022-12-15T06:11:05.613Z,-2.4
2022-12-15T06:12:05.723Z,-2.4
2022-12-15T06:13:06.166Z,-3
2022-12-15T06:14:05.766Z,-2.5
2022-12-15T06:15:06.235Z,-2.5
2022-12-15T06:16:06.192Z,-2.5
2022-12-15T06:17:05.926Z,-2.5
2022-12-15T06:18:06.262Z,-2.5
2022-12-15T06:19:05.910Z,-2.5
2022-12-15T06:20:05.683Z,-2.5
2022-12-15T06:21:06.313Z,-2.5
2022-12-15T06:22:05.690Z,-2.5
2022-12-15T06:23:06.128Z,-2.5
2022-12-15T06:24:06.109Z,-2.5
2022-12-15T06:25:05.633Z,-2.5
2022-12-15T06:26:05.908Z,-2.5
2022-12-15T06:27:05.012Z,-2.5
2022-12-15T06:28:06.453Z,-3
2022-12-15T06:29:05.954Z,-2.5
2022-12-15T06:30:05.401Z,-2.5
2022-12-15T06:31:06.279Z,-2.5
2022-12-15T06:32:05.612Z,-2.5
2022-12-15T06:33:06.140Z,-2.5
2022-12-15T06:34:06.750Z,-2.5
2022-12-15T06:35:06.056Z,-2.5
2022-12-15T06:36:06.448Z,-3
2022-12-15T06:37:06.318Z,-2.5
2022-12-15T06:38:05.624Z,-2.5
2022-12-15T06:39:06.001Z,-2.5
2022-12-15T06:40:05.846Z,-2.5
2022-12-15T06:41:06.069Z,-2.5
2022-12-15T06:42:06.272Z,-2.5
2022-12-15T06:43:05.641Z,-2.5
2022-12-15T06:44:06.222Z,-2.5
2022-12-15T06:45:05.785Z,-2.5
2022-12-15T06:46:05.643Z,-2.5
2022-12-15T06:47:06.350Z,-3
2022-12-15T06:48:06.180Z,-3
2022-12-15T06:49:06.503Z,-2.6
2022-12-15T06:50:05.975Z,-2.5
2022-12-15T06:51:05.901Z,-2.6
2022-12-15T06:52:06.408Z,-2.5
2022-12-15T06:53:05.829Z,-2.5
2022-12-15T06:54:06.466Z,-2.6
2022-12-15T06:55:06.094Z,-2.6
2022-12-15T06:56:06.209Z,-2.6
2022-12-15T06:57:05.788Z,-3
2022-12-15T06:58:06.062Z,-2.6
2022-12-15T06:59:06.529Z,-3
2022-12-15T07:00:06.299Z,-2.6
2022-12-15T07:01:05.662Z,-2.6
2022-12-15T07:02:06.760Z,-2.6
2022-12-15T07:03:06.826Z,-2.6
2022-12-15T07:04:06.986Z,-2.6
2022-12-15T07:05:06.111Z,-2.6
2022-12-15T07:06:05.968Z,-2.6
2022-12-15T07:07:06.246Z,-2.7
2022-12-15T07:08:05.757Z,-2.6
2022-12-15T07:09:06.432Z,-2.6
2022-12-15T07:10:05.895Z,-2.7
2022-12-15T07:11:06.247Z,-2.7
2022-12-15T07:12:05.786Z,-2.7
2022-12-15T07:13:06.441Z,-2.7
2022-12-15T07:14:05.986Z,-2.6
2022-12-15T07:15:04.988Z,-2.6
2022-12-15T07:16:06.823Z,-2.6
2022-12-15T07:17:05.885Z,-2.6
2022-12-15T07:18:05.608Z,-2.6
2022-12-15T07:19:05.801Z,-2.6
2022-12-15T07:20:06.209Z,-2.6
2022-12-15T07:21:05.688Z,-2.6
2022-12-15T07:22:05.705Z,-2.7
2022-12-15T07:23:06.070Z,-3
2022-12-15T07:24:08.322Z,-2.6
2022-12-15T07:25:05.979Z,-2.6
2022-12-15T07:26:13.950Z,-2.6
2022-12-15T07:27:05.873Z,-3
2022-12-15T07:28:06.203Z,-3
2022-12-15T07:29:05.670Z,-2.6
2022-12-15T07:30:06.036Z,-2.6
2022-12-15T07:31:06.072Z,-2.6
2022-12-15T07:32:06.616Z,-2.6
2022-12-15T07:33:05.880Z,-2.6
2022-12-15T07:34:05.828Z,-2.6
2022-12-15T07:35:06.416Z,-2.6
2022-12-15T07:36:05.863Z,-2.6
2022-12-15T07:37:06.123Z,-3
2022-12-15T07:38:06.423Z,-2.5
2022-12-15T07:39:05.874Z,-2.6
2022-12-15T07:40:06.136Z,-2.6
2022-12-15T07:41:05.533Z,-2.5
2022-12-15T07:42:06.051Z,-2.5
2022-12-15T07:43:05.629Z,-2.5
2022-12-15T07:44:05.646Z,-2.5
2022-12-15T07:45:05.887Z,-2.5
2022-12-15T07:46:05.745Z,-3
2022-12-15T07:47:05.922Z,-2.5
2022-12-15T07:48:05.577Z,-2.5
2022-12-15T07:49:06.218Z,-2.5
2022-12-15T07:50:05.825Z,-2.5
2022-12-15T07:51:21.476Z,-2.5
2022-12-15T07:52:05.992Z,-2.5
2022-12-15T07:53:05.576Z,-2.4
2022-12-15T07:54:05.630Z,-3
2022-12-15T07:55:06.379Z,-2.4
2022-12-15T07:56:14.435Z,-2.4
2022-12-15T07:57:06.216Z,-2.4
2022-12-15T07:58:05.643Z,-2.4
2022-12-15T07:59:05.878Z,-2.4
2022-12-15T08:00:06.338Z,-2.4
2022-12-15T08:01:05.975Z,-2.4
2022-12-15T08:02:06.831Z,-2.4
2022-12-15T08:03:05.945Z,-2.4
2022-12-15T08:04:06.294Z,-2.4
2022-12-15T08:05:05.577Z,-3
2022-12-15T08:06:08.529Z,-2.3
2022-12-15T08:07:06.172Z,-2.3
2022-12-15T08:08:06.718Z,-2.3
2022-12-15T08:09:05.864Z,-2.3
2022-12-15T08:10:06.349Z,-3
2022-12-15T08:11:04.637Z,-2.2
2022-12-15T08:12:05.805Z,-2.2
2022-12-15T08:13:04.637Z,-2.2
2022-12-15T08:14:17.847Z,-2.2
2022-12-15T08:15:05.727Z,-2.2
2022-12-15T08:16:06.604Z,-2.2
2022-12-15T08:17:06.706Z,-2.2
2022-12-15T08:18:05.914Z,-2.1
2022-12-15T08:19:06.135Z,-2
2022-12-15T08:20:12.414Z,-2
2022-12-15T08:21:06.014Z,-2
2022-12-15T08:22:06.065Z,-2
2022-12-15T08:23:06.088Z,-2
2022-12-15T08:24:05.779Z,-3
2022-12-15T08:25:05.866Z,-3
2022-12-15T08:26:06.333Z,-2
2022-12-15T08:27:06.103Z,-2
2022-12-15T08:28:05.761Z,-2.1
2022-12-15T08:29:53.249Z,-2.1
2022-12-15T08:31:06.379Z,-2
2022-12-15T08:32:06.730Z,-2
2022-12-15T08:33:06.238Z,-2
2022-12-15T08:34:05.667Z,-2
2022-12-15T08:35:11.837Z,-1.9
2022-12-15T08:36:06.074Z,-2
2022-12-15T08:37:05.702Z,-2
2022-12-15T08:38:09.918Z,-1.8
2022-12-15T08:39:06.047Z,-1.8
2022-12-15T08:40:06.165Z,-1.7
2022-12-15T08:41:05.754Z,-1.7
2022-12-15T08:42:05.598Z,-1.7
2022-12-15T08:43:05.601Z,-1.7
2022-12-15T08:44:06.085Z,-1.7
2022-12-15T08:45:06.543Z,-1.7
2022-12-15T08:46:06.538Z,-1.6
2022-12-15T08:47:05.749Z,-1.6
2022-12-15T08:48:05.901Z,-1.6
2022-12-15T08:49:05.656Z,-2
2022-12-15T08:50:05.782Z,-1.5
2022-12-15T08:51:06.312Z,-1.5
2022-12-15T08:52:05.773Z,-1.6
2022-12-15T08:53:34.683Z,-1.5
2022-12-15T08:54:06.194Z,-1.5
2022-12-15T08:55:05.501Z,-1.5
2022-12-15T08:56:06.138Z,-1.5
2022-12-15T08:57:06.149Z,-2
2022-12-15T08:58:04.970Z,-1.4
2022-12-15T08:59:05.652Z,-1.5
2022-12-15T09:00:04.944Z,-1.4
2022-12-15T09:01:06.575Z,-1.4
2022-12-15T09:02:06.512Z,-2
2022-12-15T09:03:06.204Z,-1.4
2022-12-15T09:04:06.030Z,-1.4
2022-12-15T09:05:06.089Z,-1.4
2022-12-15T09:06:05.734Z,-1.3
2022-12-15T09:07:06.166Z,-1.3
2022-12-15T09:08:10.680Z,-2
2022-12-15T09:09:05.682Z,-2
2022-12-15T09:10:06.291Z,-1.3
2022-12-15T09:11:05.713Z,-1.3
2022-12-15T09:12:06.359Z,-1.3
2022-12-15T09:13:06.529Z,-1.3
2022-12-15T09:14:05.933Z,-1.2
2022-12-15T09:15:05.976Z,-1.2
2022-12-15T09:16:15.465Z,-2
2022-12-15T09:17:06.127Z,-2
2022-12-15T09:18:06.287Z,-1
2022-12-15T09:19:06.466Z,-1.1
2022-12-15T09:20:05.257Z,-1.1
2022-12-15T09:21:05.207Z,-1
2022-12-15T09:22:04.749Z,-0.9
2022-12-15T09:23:06.240Z,-0.9
2022-12-15T09:24:05.195Z,-0.8
2022-12-15T09:25:06.090Z,-0.8
2022-12-15T09:26:06.493Z,-0.8
2022-12-15T09:27:06.080Z,-0.8
2022-12-15T09:28:06.533Z,-0.7
2022-12-15T09:29:05.999Z,-0.6
2022-12-15T09:30:06.456Z,-0.5
2022-12-15T09:31:06.531Z,-0.5
2022-12-15T09:32:12.252Z,-0.4
2022-12-15T09:33:06.022Z,-0.4
2022-12-15T09:34:05.499Z,-0.4
2022-12-15T09:35:06.008Z,-0.4
2022-12-15T09:36:05.954Z,-0.2
2022-12-15T09:37:04.919Z,-0.1
2022-12-15T09:38:06.423Z,0
2022-12-15T09:39:06.389Z,0
2022-12-15T09:40:05.859Z,0
2022-12-15T09:41:06.078Z,0
2022-12-15T09:42:05.624Z,0
2022-12-15T09:43:46.879Z,0
2022-12-15T09:44:05.897Z,-1
2022-12-15T09:45:05.795Z,0
2022-12-15T09:46:06.171Z,0
2022-12-15T09:47:06.013Z,0
2022-12-15T09:48:06.531Z,0
2022-12-15T09:49:06.019Z,0
2022-12-15T09:50:06.416Z,0
2022-12-15T09:51:06.023Z,0
2022-12-15T09:52:13.346Z,0
2022-12-15T09:53:13.282Z,0
2022-12-15T09:54:08.125Z,-0.1
2022-12-15T09:55:06.229Z,-0.1
2022-12-15T09:56:06.236Z,-0.1
2022-12-15T09:57:06.580Z,-1
2022-12-15T09:58:13.349Z,-0.2
2022-12-15T09:59:06.244Z,-0.2
2022-12-15T10:00:05.782Z,-0.3
2022-12-15T10:01:05.601Z,-0.3
2022-12-15T10:02:06.868Z,-0.3
2022-12-15T10:03:06.493Z,-0.3
2022-12-15T10:04:06.732Z,-0.4
2022-12-15T10:05:06.389Z,-0.4
2022-12-15T10:06:33.239Z,-0.4
2022-12-15T10:07:06.244Z,-0.4
2022-12-15T10:08:05.752Z,-0.4
2022-12-15T10:09:05.851Z,-0.4
2022-12-15T10:10:05.787Z,-0.3
2022-12-15T10:11:05.069Z,-0.3
2022-12-15T10:12:06.466Z,-0.3
2022-12-15T10:13:07.013Z,-0.2
2022-12-15T10:14:06.332Z,-0.2
2022-12-15T10:15:05.702Z,-0.2
2022-12-15T10:16:06.095Z,-1
2022-12-15T10:17:06.424Z,-0.2
2022-12-15T10:18:05.861Z,-0.2
2022-12-15T10:19:06.330Z,-0.2
2022-12-15T10:20:05.800Z,-0.3
2022-12-15T10:21:05.738Z,-0.3
2022-12-15T10:22:06.546Z,-0.3
2022-12-15T10:23:05.793Z,-0.4
2022-12-15T10:24:06.457Z,-0.4
2022-12-15T10:25:14.655Z,-0.3
2022-12-15T10:26:06.333Z,-0.3
2022-12-15T10:27:05.924Z,-1
2022-12-15T10:28:06.512Z,-1
2022-12-15T10:29:05.700Z,-0.2
2022-12-15T10:30:06.553Z,-0.2
2022-12-15T10:31:06.173Z,-0.2
2022-12-15T10:32:06.377Z,-0.2
2022-12-15T10:33:06.118Z,-0.3
2022-12-15T10:34:05.647Z,-0.2
2022-12-15T10:35:06.144Z,-0.2
2022-12-15T10:36:06.315Z,-0.2
2022-12-15T10:37:05.780Z,-0.2
2022-12-15T10:38:05.821Z,-0.2
2022-12-15T10:39:06.542Z,-0.2
2022-12-15T10:40:06.004Z,-0.2
2022-12-15T10:41:05.761Z,-0.2
2022-12-15T10:42:05.041Z,-0.2
2022-12-15T10:43:06.006Z,-0.3
2022-12-15T10:44:05.582Z,-0.2
2022-12-15T10:45:06.182Z,-0.2
2022-12-15T10:46:06.150Z,-0.3
2022-12-15T10:47:06.195Z,-0.3
2022-12-15T10:48:05.908Z,-0.2
2022-12-15T10:49:06.401Z,-0.2
2022-12-15T10:50:05.901Z,-0.2
2022-12-15T10:51:05.515Z,-0.2
2022-12-15T10:52:05.964Z,-0.3
2022-12-15T10:53:04.843Z,-0.3
2022-12-15T10:54:05.835Z,-0.3
2022-12-15T10:55:05.751Z,-0.3
2022-12-15T10:56:06.209Z,-0.2
2022-12-15T10:57:06.142Z,-0.2
2022-12-15T10:58:06.192Z,-0.2
2022-12-15T10:59:06.421Z,-0.2
2022-12-15T11:00:05.773Z,-0.2
2022-12-15T11:01:06.661Z,-0.2
2022-12-15T11:02:06.810Z,-0.2
2022-12-15T11:03:06.765Z,-0.2
2022-12-15T11:04:06.674Z,-0.2
2022-12-15T11:05:05.549Z,-0.2
2022-12-15T11:06:05.841Z,-0.2
2022-12-15T11:07:06.144Z,-0.2
2022-12-15T11:08:12.375Z,-0.3
2022-12-15T11:09:06.088Z,-0.2
2022-12-15T11:10:06.028Z,-0.3
2022-12-15T11:11:09.547Z,-0.2
2022-12-15T11:12:04.586Z,-0.2
2022-12-15T11:13:06.141Z,0
2022-12-15T11:14:05.606Z,-0.1
2022-12-15T11:15:06.148Z,0
2022-12-15T11:16:06.319Z,0
2022-12-15T11:17:05.931Z,0
2022-12-15T11:18:06.313Z,-1
2022-12-15T11:19:05.612Z,-1
2022-12-15T11:20:07.616Z,0
2022-12-15T11:21:05.677Z,0
2022-12-15T11:22:06.104Z,-1
2022-12-15T11:23:05.698Z,0
2022-12-15T11:24:06.488Z,0
2022-12-15T11:25:05.933Z,0
2022-12-15T11:27:05.973Z,0
2022-12-15T11:28:05.472Z,0
2022-12-15T11:29:05.858Z,0
2022-12-15T11:30:05.651Z,0
2022-12-15T11:31:05.623Z,0
2022-12-15T11:32:11.492Z,0
2022-12-15T11:33:06.565Z,0
2022-12-15T11:34:06.349Z,0
2022-12-15T11:35:06.504Z,-0.1
2022-12-15T11:36:06.067Z,0
2022-12-15T11:37:05.678Z,0
2022-12-15T11:38:06.234Z,0
2022-12-15T11:39:06.087Z,0
2022-12-15T11:40:05.797Z,0
2022-12-15T11:41:05.014Z,0
2022-12-15T11:42:05.959Z,0
2022-12-15T11:43:06.323Z,0
2022-12-15T11:45:05.903Z,0
2022-12-15T11:46:06.566Z,0
2022-12-15T11:47:05.566Z,0
2022-12-15T11:48:06.151Z,0
2022-12-15T11:49:06.105Z,0.1
2022-12-15T11:50:06.003Z,0
2022-12-15T11:51:05.561Z,0.1
2022-12-15T11:52:04.914Z,0.1
2022-12-15T11:53:05.649Z,0.2
2022-12-15T11:54:06.155Z,0.2
2022-12-15T11:55:06.059Z,0.2
2022-12-15T11:56:06.387Z,0.2
2022-12-15T11:57:06.060Z,0.2
2022-12-15T11:58:06.085Z,0.1
2022-12-15T11:59:06.154Z,0.1
2022-12-15T12:00:05.752Z,0.2
2022-12-15T12:01:05.627Z,0.1
2022-12-15T12:02:07.915Z,0
2022-12-15T12:03:06.711Z,0
2022-12-15T12:04:05.814Z,0
2022-12-15T12:05:06.079Z,0
2022-12-15T12:06:05.691Z,0
2022-12-15T12:07:06.194Z,0
2022-12-15T12:08:05.989Z,0
2022-12-15T12:09:06.485Z,0
2022-12-15T12:10:05.639Z,0
2022-12-15T12:11:06.514Z,0
2022-12-15T12:12:06.479Z,-0.1
2022-12-15T12:13:06.126Z,-0.1
2022-12-15T12:14:13.324Z,-0.1
2022-12-15T12:15:05.919Z,-0.1
2022-12-15T12:16:05.811Z,-1
2022-12-15T12:17:06.063Z,-1
2022-12-15T12:18:05.674Z,-0.2
2022-12-15T12:19:05.952Z,-0.3
2022-12-15T12:20:13.709Z,-0.2
2022-12-15T12:21:06.149Z,-0.2
2022-12-15T12:22:05.955Z,-0.2
2022-12-15T12:23:06.117Z,-0.2
2022-12-15T12:24:05.797Z,-0.2
2022-12-15T12:25:05.828Z,-1
2022-12-15T12:26:07.701Z,-0.2
2022-12-15T12:27:05.944Z,-0.2
2022-12-15T12:28:06.504Z,-0.2
2022-12-15T12:29:04.677Z,-0.2
2022-12-15T12:30:06.117Z,-0.2
2022-12-15T12:31:06.160Z,-0.3
2022-12-15T12:32:09.262Z,-0.2
2022-12-15T12:33:04.702Z,-0.2
2022-12-15T12:34:06.382Z,-0.2
2022-12-15T12:36:06.396Z,-0.1
2022-12-15T12:37:05.867Z,-0.1
2022-12-15T12:38:08.406Z,-0.1
2022-12-15T12:39:05.629Z,0
2022-12-15T12:40:05.915Z,0
2022-12-15T12:41:06.420Z,-0.1
2022-12-15T12:42:05.486Z,-0.1
2022-12-15T12:43:13.486Z,-0.1
2022-12-15T12:44:06.422Z,-0.1
2022-12-15T12:45:06.248Z,-0.1
2022-12-15T12:46:06.085Z,-0.1
2022-12-15T12:47:06.373Z,-0.2
2022-12-15T12:48:05.533Z,-0.2
2022-12-15T12:49:05.873Z,-0.2
2022-12-15T12:50:06.207Z,-0.3
2022-12-15T12:51:04.699Z,-1
2022-12-15T12:52:06.044Z,-1
2022-12-15T12:53:06.411Z,-0.3
2022-12-15T12:54:05.749Z,-0.3
2022-12-15T12:55:14.406Z,-0.3
2022-12-15T12:56:06.280Z,-0.4
2022-12-15T12:57:06.040Z,-0.4
2022-12-15T12:58:06.372Z,-0.4
2022-12-15T12:59:06.076Z,-0.4
2022-12-15T13:00:05.694Z,-0.4
2022-12-15T13:01:06.482Z,-0.4
2022-12-15T13:02:05.959Z,-0.3
2022-12-15T13:03:06.536Z,-0.4
2022-12-15T13:04:06.082Z,-0.4
2022-12-15T13:05:06.522Z,-0.4
2022-12-15T13:06:06.087Z,-0.4
2022-12-15T13:07:07.725Z,-0.4
2022-12-15T13:08:05.767Z,-0.4
2022-12-15T13:09:06.137Z,-1
2022-12-15T13:10:06.516Z,-1
2022-12-15T13:11:06.008Z,-0.4
2022-12-15T13:13:06.526Z,-0.4
2022-12-15T13:14:09.195Z,-0.5
2022-12-15T13:15:05.964Z,-0.5
2022-12-15T13:16:05.678Z,-1
2022-12-15T13:17:30.456Z,-0.5
2022-12-15T13:18:06.344Z,-0.5
2022-12-15T13:19:05.846Z,-0.5
2022-12-15T13:20:06.094Z,-0.5
2022-12-15T13:21:06.281Z,-0.5
2022-12-15T13:22:05.746Z,-1
2022-12-15T13:23:05.978Z,-1
2022-12-15T13:24:05.609Z,-0.5
2022-12-15T13:25:06.116Z,-0.5
2022-12-15T13:26:05.575Z,-0.5
2022-12-15T13:27:06.070Z,-0.4
2022-12-15T13:28:05.606Z,-0.4
2022-12-15T13:29:06.127Z,-1
2022-12-15T13:30:05.686Z,-0.4
2022-12-15T13:31:10.760Z,-0.4
2022-12-15T13:32:06.148Z,-0.4
2022-12-15T13:33:06.313Z,-0.4
2022-12-15T13:34:05.517Z,-0.4
2022-12-15T13:35:05.624Z,-0.3
2022-12-15T13:36:06.155Z,-0.3